Time;durP1;ratioP1;P1;durP2;ratioP2;P2;SDS_P1;SDS_P2;PMS_P1;PMS_P2;Temp;Humidity;BMP_temperature;BMP_pressure;BME280_temperature;BME280_humidity;BME280_pressure;Samples;Min_cycle;Max_cycle;Signal;HPM_P1;HPM_P2
2023/10/05 00:00:27;;;;;;;5.75;5.05;;;;;;;11.37;100.00;97032.63;6341276;22;20493;-75
2023/10/05 00:02:42;;;;;;;7.15;5.53;;;;;;;11.36;100.00;97038.84;6341005;22;19998;-74
2023/10/05 00:05:08;;;;;;;5.65;4.97;;;;;;;11.31;100.00;97039.19;6288048;22;20004;-75
2023/10/05 00:07:35;;;;;;;6.50;5.80;;;;;;;11.28;100.00;97042.06;6287644;22;20094;-75
2023/10/05 00:10:04;;;;;;;6.25;5.45;;;;;;;11.27;100.00;97046.50;6288183;22;20002;-75
2023/10/05 00:12:30;;;;;;;6.25;5.53;;;;;;;11.23;100.00;97045.03;6312456;22;20029;-75
2023/10/05 00:17:31;;;;;;;7.03;5.50;;;;;;;11.14;100.00;97037.78;6315399;22;19998;-75
2023/10/05 00:19:58;;;;;;;6.53;5.93;;;;;;;11.13;100.00;97039.56;6314328;22;20026;-75
2023/10/05 00:22:28;;;;;;;8.38;5.35;;;;;;;11.12;100.00;97035.25;6341952;22;20014;-75
2023/10/05 00:24:56;;;;;;;6.03;5.40;;;;;;;11.11;100.00;97027.47;6340652;22;20003;-75
2023/10/05 00:27:29;;;;;;;8.35;5.65;;;;;;;11.08;100.00;97023.25;6313270;22;19999;-75
2023/10/05 00:29:57;;;;;;;7.15;6.35;;;;;;;11.08;100.00;97020.63;6341125;22;20037;-75
2023/10/05 00:32:39;;;;;;;6.22;5.72;;;;;;;11.03;100.00;97004.31;6313320;22;20017;-75
2023/10/05 00:35:16;;;;;;;6.07;5.57;;;;;;;11.01;100.00;97014.13;6312533;22;20007;-75
2023/10/05 00:37:46;;;;;;;6.95;5.47;;;;;;;10.96;100.00;97000.47;6289496;22;20003;-75
2023/10/05 00:43:02;;;;;;;6.00;5.40;;;;;;;10.96;100.00;96989.94;6340340;22;20052;-75
2023/10/05 00:45:31;;;;;;;6.55;5.70;;;;;;;10.92;100.00;96996.34;6339993;22;20009;-75
2023/10/05 00:48:27;;;;;;;5.82;5.13;;;;;;;10.89;100.00;96989.53;6287703;22;20055;-75
2023/10/05 00:50:51;;;;;;;6.00;5.40;;;;;;;10.88;100.00;96999.22;6318145;22;20003;-75
2023/10/05 00:53:27;;;;;;;6.78;5.40;;;;;;;10.87;100.00;97004.59;6341271;22;20288;-75
2023/10/05 00:56:12;;;;;;;5.55;5.03;;;;;;;10.81;100.00;97000.63;6340095;22;20002;-75
2023/10/05 00:58:46;;;;;;;6.03;5.43;;;;;;;10.72;100.00;97004.75;6341493;22;20619;-75
2023/10/05 01:01:22;;;;;;;6.95;5.75;;;;;;;10.74;100.00;96997.59;6317644;22;20009;-75
2023/10/05 01:06:54;;;;;;;5.85;5.35;;;;;;;10.73;100.00;97000.34;6343607;22;19999;-75
2023/10/05 01:14:45;;;;;;;6.70;6.07;;;;;;;10.74;100.00;97007.28;6342891;22;20088;-75
2023/10/05 01:17:14;;;;;;;6.63;5.93;;;;;;;10.69;100.00;97019.94;6311593;22;20026;-75
2023/10/05 01:19:46;;;;;;;6.32;5.55;;;;;;;10.65;100.00;97013.19;6283250;22;20003;-75
2023/10/05 01:22:16;;;;;;;9.15;6.07;;;;;;;10.63;100.00;97017.75;6259724;22;20003;-75
2023/10/05 01:24:45;;;;;;;8.23;5.70;;;;;;;10.60;100.00;97011.75;6311447;22;20021;-75
2023/10/05 01:27:11;;;;;;;6.25;5.65;;;;;;;10.60;100.00;97011.75;6257335;22;20033;-75
2023/10/05 01:29:36;;;;;;;7.22;5.65;;;;;;;10.59;100.00;97006.56;6281868;22;20070;-75
2023/10/05 01:32:05;;;;;;;6.85;6.13;;;;;;;10.58;100.00;97007.53;6310452;22;20003;-75
2023/10/05 01:34:31;;;;;;;7.10;6.10;;;;;;;10.56;100.00;97005.03;6256183;22;20097;-75
2023/10/05 01:37:02;;;;;;;5.93;5.38;;;;;;;10.56;100.00;96999.75;6284244;22;20007;-75
2023/10/05 01:39:35;;;;;;;6.35;5.72;;;;;;;10.55;100.00;96994.59;6283553;22;20031;-75
2023/10/05 01:42:06;;;;;;;6.47;5.88;;;;;;;10.54;100.00;96990.28;6310732;22;20507;-75
2023/10/05 01:44:37;;;;;;;6.35;5.40;;;;;;;10.53;100.00;96994.72;6256789;22;20007;-75
2023/10/05 01:47:02;;;;;;;5.80;5.30;;;;;;;10.48;100.00;96991.53;6310776;22;20003;-75
2023/10/05 01:49:32;;;;;;;6.10;5.50;;;;;;;10.42;100.00;96987.56;6310928;22;20063;-75
2023/10/05 01:51:59;;;;;;;9.25;5.97;;;;;;;10.39;100.00;96990.41;6283846;22;20036;-75
2023/10/05 01:54:28;;;;;;;7.30;6.32;;;;;;;10.37;100.00;96981.75;6283163;22;20031;-75
2023/10/05 01:57:03;;;;;;;7.15;5.95;;;;;;;10.40;100.00;96978.06;6310366;22;20009;-74
2023/10/05 01:59:37;;;;;;;7.85;5.88;;;;;;;10.38;100.00;96970.25;6310852;22;20061;-74
2023/10/05 02:02:09;;;;;;;7.30;6.60;;;;;;;10.37;100.00;96967.75;6311204;22;20076;-75
2023/10/05 02:04:40;;;;;;;6.55;5.93;;;;;;;10.37;100.00;96959.84;6255530;22;20003;-74
2023/10/05 02:07:15;;;;;;;6.22;5.63;;;;;;;10.36;100.00;96956.38;6284942;22;20022;-75
2023/10/05 02:09:46;;;;;;;6.00;5.50;;;;;;;10.36;100.00;96958.19;6309995;22;20471;-75
2023/10/05 02:12:11;;;;;;;6.80;6.20;;;;;;;10.32;100.00;96947.88;6310521;22;19995;-75
2023/10/05 02:14:41;;;;;;;6.40;5.80;;;;;;;10.30;100.00;96946.28;6283631;22;20459;-75
2023/10/05 02:17:13;;;;;;;6.95;5.70;;;;;;;10.30;100.00;96944.50;6284626;22;20026;-75
2023/10/05 02:19:41;;;;;;;6.25;5.65;;;;;;;10.27;100.00;96944.69;6257608;22;20009;-75
2023/10/05 02:22:12;;;;;;;7.53;5.65;;;;;;;10.30;100.00;96936.63;6309521;22;20007;-75
2023/10/05 02:24:40;;;;;;;6.18;5.57;;;;;;;10.33;100.00;96930.28;6283001;22;20003;-75
2023/10/05 02:27:12;;;;;;;8.32;5.95;;;;;;;10.32;100.00;96925.97;6282810;22;20034;-75
2023/10/05 02:29:43;;;;;;;7.03;5.78;;;;;;;10.32;100.00;96915.44;6284187;22;20006;-75
2023/10/05 02:32:21;;;;;;;7.03;6.00;;;;;;;10.30;100.00;96912.94;6257893;22;20019;-75
2023/10/05 02:35:17;;;;;;;7.65;6.28;;;;;;;10.27;100.00;96909.66;6282932;22;20078;-75
2023/10/05 02:37:48;;;;;;;6.90;6.00;;;;;;;10.23;100.00;96901.13;6311107;22;20054;-75
2023/10/05 02:40:15;;;;;;;6.88;6.28;;;;;;;10.22;100.00;96893.38;6258881;22;20009;-75
2023/10/05 02:42:51;;;;;;;6.80;6.20;;;;;;;10.20;100.00;96898.72;6283192;22;19991;-74
2023/10/05 02:45:21;;;;;;;6.47;5.78;;;;;;;10.15;100.00;96898.22;6283675;22;20688;-76
2023/10/05 02:47:48;;;;;;;6.97;6.30;;;;;;;10.11;100.00;96894.13;6282676;22;20003;-75
2023/10/05 02:50:14;;;;;;;7.10;6.40;;;;;;;10.08;100.00;96897.81;6282735;22;20428;-75
2023/10/05 02:52:41;;;;;;;6.13;5.63;;;;;;;10.07;100.00;96896.13;6283387;22;20460;-75
2023/10/05 02:55:09;;;;;;;6.20;5.70;;;;;;;10.08;100.00;96899.63;6257675;22;20029;-75
2023/10/05 02:57:39;;;;;;;7.75;6.38;;;;;;;10.08;100.00;96889.09;6258003;22;20616;-75
2023/10/05 03:00:10;;;;;;;6.50;5.90;;;;;;;10.03;100.00;96895.50;6310645;22;20003;-75
2023/10/05 03:02:45;;;;;;;6.63;5.80;;;;;;;10.00;100.00;96890.47;6257455;22;20003;-75
2023/10/05 03:05:12;;;;;;;7.10;6.40;;;;;;;10.01;100.00;96893.94;6310584;22;19995;-75
2023/10/05 03:07:48;;;;;;;7.53;6.25;;;;;;;9.97;100.00;96892.50;6310647;22;20022;-75
2023/10/05 03:10:16;;;;;;;7.05;6.35;;;;;;;9.90;100.00;96892.06;6283966;22;20003;-75
2023/10/05 03:12:50;;;;;;;7.35;6.25;;;;;;;9.89;100.00;96899.13;6310032;22;20003;-75
2023/10/05 03:15:20;;;;;;;7.05;6.45;;;;;;;9.89;100.00;96895.66;6288720;22;20049;-75
2023/10/05 03:17:48;;;;;;;7.78;6.53;;;;;;;9.85;100.00;96905.53;6314693;22;20316;-75
2023/10/05 03:20:18;;;;;;;7.05;6.35;;;;;;;9.81;100.00;96897.97;6341724;22;19999;-75
2023/10/05 03:22:47;;;;;;;6.68;6.07;;;;;;;9.79;100.00;96897.22;6341902;22;20018;-75
2023/10/05 03:25:15;;;;;;;10.20;5.97;;;;;;;9.77;100.00;96899.13;6341663;22;19999;-75
2023/10/05 03:27:46;;;;;;;7.15;6.53;;;;;;;9.75;100.00;96894.81;6341288;22;20018;-75
2023/10/05 03:30:14;;;;;;;7.60;6.88;;;;;;;9.72;100.00;96905.56;6341591;22;20002;-75
2023/10/05 03:32:48;;;;;;;6.93;6.32;;;;;;;9.69;100.00;96884.75;6314559;22;20010;-75
2023/10/05 03:35:13;;;;;;;6.90;6.25;;;;;;;9.73;100.00;96891.47;6312826;22;19999;-75
2023/10/05 03:37:41;;;;;;;7.15;6.45;;;;;;;9.80;100.00;96896.28;6340400;22;20764;-75
2023/10/05 03:40:24;;;;;;;8.15;6.07;;;;;;;9.79;100.00;96899.88;6313360;22;19995;-75
2023/10/05 03:42:59;;;;;;;9.63;6.28;;;;;;;9.77;100.00;96901.75;6341382;22;20002;-75
2023/10/05 03:45:31;;;;;;;6.93;6.32;;;;;;;9.73;100.00;96899.34;6341194;22;20006;-75
2023/10/05 03:48:01;;;;;;;8.00;6.53;;;;;;;9.75;100.00;96901.88;6288231;22;20018;-75
2023/10/05 03:50:31;;;;;;;8.02;6.35;;;;;;;9.72;100.00;96894.19;6288727;22;20010;-75
2023/10/05 03:52:58;;;;;;;7.20;6.50;;;;;;;9.67;100.00;96907.69;6312753;22;20072;-75
2023/10/05 03:55:24;;;;;;;6.90;6.25;;;;;;;9.68;100.00;96898.84;6312411;22;20106;-75
2023/10/05 03:57:57;;;;;;;7.35;6.65;;;;;;;9.71;100.00;96903.88;6287851;22;20002;-75
2023/10/05 04:00:31;;;;;;;7.18;6.57;;;;;;;9.71;100.00;96898.63;6312689;22;19999;-75
2023/10/05 04:02:58;;;;;;;7.15;6.45;;;;;;;9.72;100.00;96888.94;6313532;22;19991;-75
2023/10/05 04:05:24;;;;;;;7.80;7.10;;;;;;;9.70;100.00;96881.16;6313875;22;20003;-75
2023/10/05 04:07:52;;;;;;;8.95;6.90;;;;;;;9.69;100.00;96882.09;6340386;22;20048;-74
2023/10/05 04:10:27;;;;;;;8.48;7.65;;;;;;;9.68;100.00;96877.81;6340829;22;20002;-74
2023/10/05 04:12:55;;;;;;;8.65;6.93;;;;;;;9.65;100.00;96878.03;6314106;22;20412;-74
2023/10/05 04:15:21;;;;;;;7.60;6.90;;;;;;;9.58;100.00;96872.34;6313298;22;20609;-75
2023/10/05 04:17:54;;;;;;;8.10;7.30;;;;;;;9.52;100.00;96871.91;6313282;22;20006;-74
2023/10/05 04:20:27;;;;;;;7.88;7.05;;;;;;;9.53;100.00;96879.72;6314138;22;20002;-75
2023/10/05 04:22:57;;;;;;;10.18;7.05;;;;;;;9.56;100.00;96881.28;6314968;22;20022;-75
2023/10/05 04:25:23;;;;;;;9.07;7.00;;;;;;;9.57;100.00;96885.59;6313181;22;20052;-75
2023/10/05 04:27:49;;;;;;;8.02;7.22;;;;;;;9.56;100.00;96883.91;6287191;22;20064;-74
2023/10/05 04:30:21;;;;;;;7.80;7.10;;;;;;;9.58;100.00;96879.38;6313851;22;20558;-75
2023/10/05 04:32:48;;;;;;;9.57;7.53;;;;;;;9.59;100.00;96881.91;6341299;22;19999;-75
2023/10/05 04:35:22;;;;;;;7.72;7.00;;;;;;;9.59;100.00;96878.44;6315156;22;20003;-77
2023/10/05 04:37:49;;;;;;;7.88;7.07;;;;;;;9.56;100.00;96887.38;6292977;22;20033;-80
2023/10/05 04:40:16;;;;;;;7.55;6.85;;;;;;;9.56;100.00;96889.16;6316055;22;20101;-75
2023/10/05 04:42:47;;;;;;;8.18;7.38;;;;;;;9.52;100.00;96891.19;6342112;22;20064;-75
2023/10/05 04:45:14;;;;;;;8.40;7.50;;;;;;;9.52;100.00;96887.69;6342936;22;19999;-75
2023/10/05 04:47:45;;;;;;;8.02;6.95;;;;;;;9.56;100.00;96891.78;6289546;22;19999;-76
2023/10/05 04:50:15;;;;;;;8.07;7.03;;;;;;;9.54;100.00;96894.53;6314300;22;20135;-75
2023/10/05 04:52:50;;;;;;;10.38;7.97;;;;;;;9.57;100.00;96888.22;6316180;22;20014;-75
2023/10/05 04:55:23;;;;;;;9.32;7.68;;;;;;;9.57;100.00;96896.09;6315052;22;20056;-75
2023/10/05 04:57:55;;;;;;;8.63;7.38;;;;;;;9.58;100.00;96889.88;6341810;22;20003;-76
2023/10/05 05:08:34;;;;;;;10.98;7.15;;;;;;;9.44;100.00;96896.97;6282640;22;20003;-75
2023/10/05 05:11:13;;;;;;;9.07;7.35;;;;;;;9.39;100.00;96900.84;6316868;22;20516;-75
2023/10/05 05:13:39;;;;;;;9.68;7.80;;;;;;;9.39;100.00;96901.66;6289714;22;20042;-75
2023/10/05 05:16:08;;;;;;;8.95;7.63;;;;;;;9.40;100.00;96902.53;6314312;22;20089;-75
2023/10/05 05:18:37;;;;;;;11.20;8.65;;;;;;;9.42;100.00;96903.25;6342176;22;20055;-76
2023/10/05 05:21:07;;;;;;;9.27;8.38;;;;;;;9.38;100.00;96896.53;6316150;22;20005;-76
2023/10/05 05:23:36;;;;;;;12.23;8.38;;;;;;;9.36;100.00;96907.13;6313824;22;20022;-76
2023/10/05 05:26:09;;;;;;;9.93;7.63;;;;;;;9.31;100.00;96904.00;6289752;22;19999;-76
2023/10/05 05:28:37;;;;;;;8.68;7.97;;;;;;;9.31;100.00;96906.63;6341347;22;20029;-76
2023/10/05 05:31:16;;;;;;;8.48;7.78;;;;;;;9.35;100.00;96902.00;6315431;22;20026;-75
2023/10/05 05:33:44;;;;;;;9.27;7.63;;;;;;;9.33;100.00;96912.59;6313661;22;20037;-76
2023/10/05 05:36:11;;;;;;;9.48;7.65;;;;;;;9.37;100.00;96902.75;6315181;22;20002;-75
2023/10/05 05:38:38;;;;;;;11.68;7.30;;;;;;;9.38;100.00;96910.50;6341074;22;20052;-74
2023/10/05 05:41:20;;;;;;;10.00;7.30;;;;;;;9.34;100.00;96906.41;6341781;22;20060;-76
2023/10/05 05:43:47;;;;;;;12.45;7.53;;;;;;;9.33;100.00;96909.97;6340460;22;20025;-82
2023/10/05 05:46:13;;;;;;;10.32;7.78;;;;;;;9.35;100.00;96913.34;6314094;22;20052;-77
2023/10/05 05:48:48;;;;;;;9.05;7.60;;;;;;;9.39;100.00;96916.63;6341935;22;20074;-77
2023/10/05 05:51:15;;;;;;;9.90;8.70;;;;;;;9.40;100.00;96913.91;6314015;22;20446;-80
2023/10/05 05:53:46;;;;;;;11.57;8.75;;;;;;;9.42;100.00;96911.16;6341544;22;20388;-75
2023/10/05 05:56:25;;;;;;;8.88;7.03;;;;;;;9.42;100.00;96908.50;6315354;22;20002;-80
2023/10/05 05:59:03;;;;;;;8.88;7.45;;;;;;;9.41;100.00;96902.44;6340880;22;20054;-78
2023/10/05 06:01:29;;;;;;;7.88;7.03;;;;;;;9.39;100.00;96893.78;6342317;22;19994;-81
2023/10/05 06:04:05;;;;;;;8.98;7.32;;;;;;;9.42;100.00;96882.22;6313224;22;20001;-78
2023/10/05 06:06:30;;;;;;;8.98;7.70;;;;;;;9.46;100.00;96875.81;6341285;22;20910;-81
2023/10/05 06:08:59;;;;;;;8.05;7.25;;;;;;;9.50;100.00;96873.81;6339924;22;20096;-80
2023/10/05 06:11:41;;;;;;;12.65;7.70;;;;;;;9.54;100.00;96864.75;6341782;22;20002;-79
2023/10/05 06:14:06;;;;;;;10.15;8.05;;;;;;;9.57;100.00;96859.28;6314049;22;20006;-80
2023/10/05 06:16:42;;;;;;;9.85;7.45;;;;;;;9.57;100.00;96865.41;6313854;22;20033;-82
2023/10/05 06:19:08;;;;;;;9.25;7.45;;;;;;;9.60;100.00;96869.59;6312998;22;20036;-82
2023/10/05 06:21:42;;;;;;;9.07;7.65;;;;;;;9.63;100.00;96879.91;6340816;22;20470;-78
2023/10/05 06:24:07;;;;;;;7.97;7.18;;;;;;;9.66;100.00;96884.97;6339259;22;20002;-80
2023/10/05 06:26:40;;;;;;;9.02;7.43;;;;;;;9.71;100.00;96890.72;6341838;22;19999;-77
2023/10/05 06:29:10;;;;;;;9.85;7.47;;;;;;;9.73;100.00;96888.84;6313457;22;20297;-78
2023/10/05 06:31:36;;;;;;;8.90;7.95;;;;;;;9.78;100.00;96895.56;6340973;22;19998;-79
2023/10/05 06:34:09;;;;;;;9.35;7.68;;;;;;;9.79;100.00;96898.09;6340680;22;20085;-79
2023/10/05 06:36:38;;;;;;;10.20;7.95;;;;;;;9.83;100.00;96912.69;6341218;22;19995;-79
2023/10/05 06:39:09;;;;;;;8.30;7.50;;;;;;;9.83;100.00;96904.81;6313210;22;20056;-79
2023/10/05 06:41:40;;;;;;;8.38;7.07;;;;;;;9.91;100.00;96904.28;6289619;22;20003;-79
2023/10/05 06:44:10;;;;;;;8.30;7.30;;;;;;;9.99;100.00;96914.25;6281809;22;20375;-78
2023/10/05 06:46:40;;;;;;;12.77;8.57;;;;;;;10.05;100.00;96911.19;6310550;22;20124;-79
2023/10/05 06:49:07;;;;;;;9.23;8.05;;;;;;;10.09;100.00;96898.66;6282918;22;20007;-78
2023/10/05 06:51:43;;;;;;;11.88;8.48;;;;;;;10.09;100.00;96894.22;6310341;22;20285;-77
2023/10/05 06:54:08;;;;;;;8.52;7.57;;;;;;;10.11;100.00;96892.31;6282510;22;20045;-79
2023/10/05 06:56:47;;;;;;;9.27;7.90;;;;;;;10.15;100.00;96893.78;6282807;22;20795;-78
2023/10/05 06:59:13;;;;;;;8.73;7.93;;;;;;;10.20;100.00;96884.75;6309245;22;20003;-79
2023/10/05 07:01:42;;;;;;;13.25;8.60;;;;;;;10.21;100.00;96879.34;6282770;22;20042;-79
2023/10/05 07:04:09;;;;;;;12.75;7.72;;;;;;;10.26;100.00;96879.84;6310985;22;20018;-78
2023/10/05 07:06:35;;;;;;;11.40;8.43;;;;;;;10.26;100.00;96873.75;6309511;22;20006;-79
2023/10/05 07:09:01;;;;;;;8.57;7.78;;;;;;;10.25;100.00;96867.66;6282929;22;19995;-79
2023/10/05 07:11:37;;;;;;;9.73;7.90;;;;;;;10.31;100.00;96875.13;6310520;22;20053;-80
2023/10/05 07:14:09;;;;;;;10.32;8.15;;;;;;;10.30;100.00;96880.47;6283477;22;20474;-78
2023/10/05 07:16:40;;;;;;;7.75;7.05;;;;;;;10.33;100.00;96882.88;6311190;22;20019;-79
2023/10/05 07:19:08;;;;;;;12.35;7.45;;;;;;;10.37;100.00;96879.06;6283937;22;19999;-79
2023/10/05 07:21:40;;;;;;;9.32;7.53;;;;;;;10.43;100.00;96889.22;6284746;22;20006;-79
2023/10/05 07:24:07;;;;;;;8.82;7.93;;;;;;;10.50;100.00;96886.97;6283507;22;20003;-80
2023/10/05 07:26:41;;;;;;;10.23;8.40;;;;;;;10.55;100.00;96895.38;6311101;22;20074;-80
2023/10/05 07:29:08;;;;;;;8.88;7.97;;;;;;;10.59;100.00;96895.97;6310557;22;20022;-78
2023/10/05 07:31:43;;;;;;;8.50;7.60;;;;;;;10.67;100.00;96888.38;6310165;22;20238;-79
2023/10/05 07:34:09;;;;;;;13.18;7.68;;;;;;;10.77;100.00;96904.34;6308965;22;20004;-81
2023/10/05 07:36:36;;;;;;;12.95;8.63;;;;;;;10.88;100.00;96898.28;6309434;22;20009;-87
2023/10/05 07:39:04;;;;;;;8.95;8.15;;;;;;;10.96;100.00;96906.44;6308426;22;20019;-80
2023/10/05 07:41:40;;;;;;;9.90;8.65;;;;;;;11.03;100.00;96896.28;6282625;22;19995;-79
2023/10/05 07:44:06;;;;;;;11.23;9.07;;;;;;;11.16;100.00;96904.09;6309446;22;20499;-79
2023/10/05 07:46:39;;;;;;;9.75;8.40;;;;;;;11.23;100.00;96907.94;6257669;22;20030;-79
2023/10/05 07:49:06;;;;;;;8.15;7.35;;;;;;;11.31;100.00;96908.22;6285660;22;20003;-79
2023/10/05 07:51:40;;;;;;;9.98;7.88;;;;;;;11.42;100.00;96914.47;6287004;22;20034;-79
2023/10/05 07:54:06;;;;;;;7.93;6.97;;;;;;;11.57;100.00;96920.34;6286888;22;20436;-79
2023/10/05 07:56:40;;;;;;;8.10;7.22;;;;;;;11.68;100.00;96923.00;6314047;22;20431;-79
2023/10/05 07:59:06;;;;;;;9.30;7.35;;;;;;;11.89;100.00;96931.03;6287237;22;20424;-78
2023/10/05 08:01:43;;;;;;;8.25;7.45;;;;;;;12.02;100.00;96930.94;6235786;22;20010;-78
2023/10/05 08:04:11;;;;;;;8.43;7.70;;;;;;;12.17;100.00;96933.34;6311988;22;19995;-79
2023/10/05 08:06:39;;;;;;;7.57;6.90;;;;;;;12.28;100.00;96943.91;6315395;22;19995;-81
2023/10/05 08:09:06;;;;;;;9.90;6.78;;;;;;;12.38;100.00;96953.72;6313089;22;19999;-79
2023/10/05 08:11:39;;;;;;;8.13;7.43;;;;;;;12.47;100.00;96960.91;6260230;22;20343;-80
2023/10/05 08:14:04;;;;;;;11.88;7.18;;;;;;;12.58;100.00;96963.53;6312670;22;20078;-80
2023/10/05 08:16:40;;;;;;;10.75;7.32;;;;;;;12.69;100.00;96975.03;6259723;22;20278;-80
2023/10/05 08:19:08;;;;;;;12.82;7.38;;;;;;;12.84;100.00;96978.28;6284921;22;20504;-80
2023/10/05 08:21:41;;;;;;;10.50;6.90;;;;;;;12.93;100.00;96984.59;6285669;22;20003;-79
2023/10/05 08:24:08;;;;;;;9.52;6.78;;;;;;;12.98;100.00;96990.34;6284383;22;20000;-80
2023/10/05 08:26:40;;;;;;;6.50;5.90;;;;;;;13.01;100.00;97005.97;6258714;22;19995;-80
2023/10/05 08:29:08;;;;;;;6.80;6.10;;;;;;;13.04;100.00;97011.00;6258019;22;20070;-78
2023/10/05 08:31:44;;;;;;;8.77;6.18;;;;;;;13.09;100.00;97014.09;6311579;22;20015;-79
2023/10/05 08:34:20;;;;;;;8.30;6.57;;;;;;;13.18;100.00;97018.66;6283325;22;20014;-79
2023/10/05 08:36:49;;;;;;;7.00;6.22;;;;;;;13.25;100.00;97016.31;6259112;22;20005;-80
2023/10/05 08:39:23;;;;;;;8.00;6.63;;;;;;;13.30;100.00;97024.72;6310122;22;20336;-81
2023/10/05 08:41:54;;;;;;;9.13;6.35;;;;;;;13.35;100.00;97026.97;6310090;22;20415;-80
2023/10/05 08:44:30;;;;;;;6.30;5.80;;;;;;;13.36;100.00;97028.66;6283146;22;20450;-79
2023/10/05 08:46:59;;;;;;;6.43;5.70;;;;;;;13.41;100.00;97033.56;6311171;22;20089;-79
2023/10/05 08:49:29;;;;;;;6.50;5.85;;;;;;;13.48;100.00;97055.09;6311075;22;20011;-80
2023/10/05 08:52:09;;;;;;;6.43;5.82;;;;;;;13.55;100.00;97053.63;6259078;22;20007;-80
2023/10/05 08:54:39;;;;;;;6.78;5.75;;;;;;;13.63;100.00;97048.56;6284671;22;20038;-80
2023/10/05 08:57:12;;;;;;;6.80;6.03;;;;;;;13.70;100.00;97049.72;6283625;22;20197;-79
2023/10/05 08:59:50;;;;;;;7.63;6.45;;;;;;;13.82;100.00;97031.13;6283060;22;19995;-79
2023/10/05 09:02:18;;;;;;;6.32;5.80;;;;;;;13.96;100.00;97033.44;6310268;22;20002;-79
2023/10/05 09:05:00;;;;;;;7.38;6.03;;;;;;;13.99;100.00;97043.75;6282471;22;20407;-80
2023/10/05 09:07:37;;;;;;;6.63;5.90;;;;;;;14.07;100.00;97052.88;6310606;22;20071;-79
2023/10/05 09:10:15;;;;;;;7.22;6.15;;;;;;;14.21;100.00;97057.81;6309942;22;20058;-79
2023/10/05 09:12:57;;;;;;;9.32;6.53;;;;;;;14.33;100.00;97053.28;6283676;22;20003;-78
2023/10/05 09:17:58;;;;;;;7.50;6.40;;;;;;;14.43;100.00;97032.97;6283046;22;20713;-80
2023/10/05 09:20:36;;;;;;;6.97;6.28;;;;;;;14.51;100.00;97045.56;6282888;22;19999;-80
2023/10/05 09:23:07;;;;;;;6.38;5.75;;;;;;;14.57;100.00;97039.72;6312291;22;20559;-80
2023/10/05 09:25:34;;;;;;;8.75;6.78;;;;;;;14.63;100.00;97038.34;6312839;22;19999;-78
2023/10/05 09:28:16;;;;;;;6.50;5.90;;;;;;;14.72;100.00;97034.09;6285109;22;20053;-79
2023/10/05 09:30:59;;;;;;;8.98;6.03;;;;;;;14.87;100.00;97032.72;6312679;22;20586;-79
2023/10/05 09:33:33;;;;;;;6.32;5.72;;;;;;;15.02;100.00;97024.38;6284057;22;20090;-79
2023/10/05 09:36:22;;;;;;;8.13;5.93;;;;;;;15.16;100.00;97016.03;6312290;22;19999;-79
2023/10/05 09:38:57;;;;;;;6.90;6.20;;;;;;;15.20;100.00;97013.09;6284033;22;20003;-79
2023/10/05 09:41:29;;;;;;;6.95;6.10;;;;;;;15.28;100.00;97005.28;6284739;22;20029;-79
2023/10/05 09:44:07;;;;;;;8.13;6.05;;;;;;;15.35;100.00;97000.25;6283923;22;20021;-78
2023/10/05 09:46:39;;;;;;;8.10;5.78;;;;;;;15.49;100.00;97004.28;6311218;22;20049;-79
2023/10/05 09:49:07;;;;;;;7.93;5.72;;;;;;;15.54;100.00;96994.09;6283968;22;20070;-78
2023/10/05 09:51:42;;;;;;;6.32;5.70;;;;;;;15.57;100.00;96994.66;6311537;22;20003;-78
2023/10/05 09:54:10;;;;;;;7.07;6.18;;;;;;;15.62;100.00;96999.56;6285547;22;20007;-78
2023/10/05 09:56:41;;;;;;;8.77;6.10;;;;;;;15.73;100.00;97017.13;6312055;22;20432;-78
2023/10/05 09:59:15;;;;;;;7.53;5.72;;;;;;;15.90;100.00;97016.41;6285687;22;20001;-78
2023/10/05 10:01:45;;;;;;;7.75;5.97;;;;;;;16.00;100.00;97013.75;6284729;22;20007;-78
2023/10/05 10:04:24;;;;;;;7.40;6.15;;;;;;;16.09;100.00;97005.91;6233685;22;19999;-79
2023/10/05 10:06:53;;;;;;;9.20;6.50;;;;;;;16.00;100.00;97003.13;6238857;22;20030;-79
2023/10/05 10:09:28;;;;;;;6.40;5.78;;;;;;;16.03;100.00;96997.53;6284613;22;20026;-82
2023/10/05 10:12:11;;;;;;;6.93;5.90;;;;;;;16.16;100.00;97012.31;6260199;22;20032;-80
2023/10/05 10:14:41;;;;;;;6.55;5.95;;;;;;;16.29;100.00;97002.22;6259656;22;20521;-80
2023/10/05 10:17:27;;;;;;;8.68;5.78;;;;;;;16.27;100.00;96993.53;6258995;22;20050;-80
2023/10/05 10:20:36;;;;;;;8.77;5.75;;;;;;;16.29;100.00;96991.56;6284827;22;20007;-80
2023/10/05 10:23:22;;;;;;;8.82;5.93;;;;;;;16.42;100.00;96999.22;6312490;22;20069;-81
2023/10/05 10:25:56;;;;;;;7.38;5.90;;;;;;;16.51;100.00;96994.84;6283877;22;20010;-81
2023/10/05 10:29:29;;;;;;;8.65;6.07;;;;;;;16.71;100.00;96986.75;6311970;22;20003;-81
2023/10/05 10:31:42;;;;;;;8.73;5.78;;;;;;;16.85;100.00;96986.25;6270031;22;20010;-81
2023/10/05 10:34:19;;;;;;;6.10;5.50;;;;;;;16.92;100.00;96973.19;6311123;22;20021;-80
2023/10/05 10:36:51;;;;;;;7.40;5.85;;;;;;;16.97;100.00;96968.25;6285195;22;20003;-81
2023/10/05 10:39:23;;;;;;;6.38;5.72;;;;;;;17.10;100.00;96967.88;6314572;22;19999;-80
2023/10/05 10:42:12;;;;;;;7.53;6.32;;;;;;;17.08;100.00;96956.56;6313665;22;20024;-80
2023/10/05 10:47:22;;;;;;;6.22;5.38;;;;;;;17.08;100.00;96945.09;6312445;22;20089;-81
2023/10/05 10:50:22;;;;;;;6.90;5.40;;;;;;;17.14;100.00;96947.16;6258823;22;20094;-81
2023/10/05 10:52:50;;;;;;;7.90;5.45;;;;;;;17.27;100.00;96947.59;6311353;22;20340;-80
2023/10/05 10:55:20;;;;;;;5.97;5.40;;;;;;;17.47;100.00;96940.28;6233489;22;19999;-81
2023/10/05 10:57:53;;;;;;;5.70;5.20;;;;;;;17.65;100.00;96934.06;6284527;22;20055;-80
2023/10/05 11:03:15;;;;;;;5.72;5.13;;;;;;;17.97;100.00;96923.78;6286677;22;20222;-81
2023/10/05 11:05:43;;;;;;;5.65;5.00;;;;;;;18.10;100.00;96910.06;6310778;22;20371;-82
2023/10/05 11:08:13;;;;;;;7.00;5.90;;;;;;;17.92;100.00;96912.78;6311185;22;19999;-82
2023/10/05 11:10:42;;;;;;;5.80;5.30;;;;;;;17.94;100.00;96916.94;6284271;22;20379;-83
2023/10/05 11:13:14;;;;;;;6.00;5.40;;;;;;;17.82;100.00;96912.88;6283658;22;20013;-82
2023/10/05 11:16:11;;;;;;;6.40;5.40;;;;;;;17.98;100.00;96907.63;6279225;22;20011;-83
2023/10/05 11:19:02;;;;;;;6.53;5.05;;;;;;;18.09;100.00;96901.22;6260625;22;20007;-84
2023/10/05 11:21:43;;;;;;;7.07;5.65;;;;;;;18.24;100.00;96906.78;6232752;22;19995;-80
2023/10/05 11:24:10;;;;;;;6.45;5.78;;;;;;;18.31;100.00;96921.13;6279825;22;20003;-85
2023/10/05 11:29:43;;;;;;;8.70;6.13;;;;;;;18.61;100.00;96924.22;6279806;22;19999;-87
2023/10/05 11:32:21;;;;;;;7.70;5.32;;;;;;;18.70;100.00;96901.06;6279903;22;20441;-83
2023/10/05 11:34:54;;;;;;;6.00;5.45;;;;;;;18.82;100.00;96911.44;6276443;22;20563;-83
2023/10/05 11:37:30;;;;;;;6.10;5.57;;;;;;;18.96;100.00;96893.94;6254534;22;20071;-84
2023/10/05 11:40:01;;;;;;;7.53;5.50;;;;;;;18.89;100.00;96891.09;6278582;22;20066;-83
2023/10/05 11:42:36;;;;;;;6.85;5.65;;;;;;;18.84;100.00;96902.25;6278269;22;19996;-83
2023/10/05 11:45:16;;;;;;;6.30;5.40;;;;;;;18.78;100.00;96908.25;6276422;22;20000;-83
2023/10/05 11:47:56;;;;;;;6.25;5.40;;;;;;;18.81;100.00;96907.13;6278391;22;20000;-83
2023/10/05 11:50:25;;;;;;;7.97;5.80;;;;;;;18.78;100.00;96892.25;6280131;22;20463;-86
2023/10/05 11:52:55;;;;;;;7.05;5.30;;;;;;;18.79;100.00;96906.41;6278225;22;20000;-83
2023/10/05 11:55:35;;;;;;;7.03;5.72;;;;;;;18.93;100.00;96912.97;6278425;22;19999;-84
2023/10/05 11:58:08;;;;;;;7.15;5.32;;;;;;;19.06;100.00;96915.19;6280194;22;20007;-83
2023/10/05 12:00:35;;;;;;;6.68;5.25;;;;;;;19.13;100.00;96895.66;6278366;22;20000;-83
2023/10/05 12:03:09;;;;;;;6.32;5.53;;;;;;;19.31;100.00;96898.16;6278293;22;20006;-83
2023/10/05 12:05:34;;;;;;;7.33;5.50;;;;;;;19.31;100.00;96883.97;6253107;22;20088;-84
2023/10/05 12:08:12;;;;;;;6.18;5.43;;;;;;;19.37;100.00;96880.63;6280105;22;20010;-80
2023/10/05 12:10:39;;;;;;;5.63;5.13;;;;;;;19.36;100.00;96876.31;6280152;22;20447;-82
2023/10/05 12:13:07;;;;;;;6.03;5.28;;;;;;;19.31;100.00;96881.28;6278336;22;20007;-84
2023/10/05 12:15:33;;;;;;;6.45;4.82;;;;;;;19.39;100.00;96883.97;6289200;22;20019;-85
2023/10/05 12:17:59;;;;;;;6.55;5.13;;;;;;;19.44;100.00;96880.78;6310564;22;20407;-83
2023/10/05 12:20:24;;;;;;;6.75;5.13;;;;;;;19.43;100.00;96879.09;6284462;22;19999;-81